Time;durP1;ratioP1;P1;durP2;ratioP2;P2;SDS_P1;SDS_P2;PMS_P1;PMS_P2;Temp;Humidity;BMP_temperature;BMP_pressure;BME280_temperature;BME280_humidity;BME280_pressure;Samples;Min_cycle;Max_cycle;Signal;HPM_P1;HPM_P2
2021/04/28 00:01:58;;;;;;;;;;;;;;;9.06;48.37;98081.09;4887653;29;19919;-76
2021/04/28 00:04:24;;;;;;;;;;;;;;;8.97;48.51;98083.13;4885248;29;20499;-77
2021/04/28 00:06:50;;;;;;;;;;;;;;;9.15;47.55;98078.97;4878342;29;19923;-77
2021/04/28 00:09:16;;;;;;;;;;;;;;;8.56;49.14;98077.06;4886480;29;20373;-76
2021/04/28 00:11:41;;;;;;;;;;;;;;;8.42;47.59;98071.63;4876018;29;19923;-76
2021/04/28 00:14:07;;;;;;;;;;;;;;;8.56;48.80;98066.81;4888015;29;19919;-76
2021/04/28 00:16:33;;;;;;;;;;;;;;;8.64;49.93;98069.88;4880806;29;19966;-77
2021/04/28 00:18:58;;;;;;;;;;;;;;;8.80;47.58;98059.84;4864644;29;19927;-77
2021/04/28 00:21:24;;;;;;;;;;;;;;;8.75;47.42;98061.78;4905177;29;19923;-76
2021/04/28 00:23:50;;;;;;;;;;;;;;;8.48;49.16;98056.00;4871599;29;19919;-77
2021/04/28 00:26:16;;;;;;;;;;;;;;;8.48;49.35;98054.25;4905285;29;19915;-76
2021/04/28 00:28:45;;;;;;;;;;;;;;;8.08;50.16;98057.47;4865903;29;20412;-77
2021/04/28 00:31:10;;;;;;;;;;;;;;;8.02;50.88;98050.00;4887738;29;19919;-76
2021/04/28 00:33:36;;;;;;;;;;;;;;;7.90;51.04;98052.13;4864549;29;19922;-76
2021/04/28 00:36:02;;;;;;;;;;;;;;;8.01;51.11;98051.75;4880215;29;19930;-78
2021/04/28 00:38:28;;;;;;;;;;;;;;;8.07;50.79;98042.97;4883415;29;20456;-78
2021/04/28 00:40:53;;;;;;;;;;;;;;;8.42;50.24;98043.41;4892583;29;19924;-77
2021/04/28 00:43:19;;;;;;;;;;;;;;;8.49;48.33;98044.84;4889952;29;20385;-77
2021/04/28 00:45:46;;;;;;;;;;;;;;;8.78;48.16;98036.84;4876526;29;20133;-77
2021/04/28 00:48:11;;;;;;;;;;;;;;;8.90;47.58;98029.53;4867788;29;19958;-78
2021/04/28 00:50:38;;;;;;;;;;;;;;;8.78;47.46;98031.69;4891256;29;21353;-79
2021/04/28 00:53:04;;;;;;;;;;;;;;;8.91;47.75;98031.19;4890742;29;19998;-77
2021/04/28 00:55:29;;;;;;;;;;;;;;;8.83;47.53;98033.25;4882867;29;20812;-77
2021/04/28 00:57:55;;;;;;;;;;;;;;;8.82;47.17;98023.88;4880229;29;19923;-77
2021/04/28 01:00:21;;;;;;;;;;;;;;;8.87;46.61;98029.63;4891373;29;19923;-77
2021/04/28 01:02:47;;;;;;;;;;;;;;;8.75;46.93;98018.97;4879590;29;19926;-77
2021/04/28 01:05:12;;;;;;;;;;;;;;;8.70;47.28;98023.47;4892347;29;19931;-77
2021/04/28 01:07:38;;;;;;;;;;;;;;;8.65;47.07;98025.38;4880490;29;19946;-77
2021/04/28 01:10:08;;;;;;;;;;;;;;;8.34;49.07;98021.41;4879713;29;19923;-77
2021/04/28 01:12:35;;;;;;;;;;;;;;;8.44;48.42;98021.94;4907435;29;20389;-77
2021/04/28 01:15:00;;;;;;;;;;;;;;;8.22;48.38;98019.31;4891945;29;20372;-77
2021/04/28 01:17:26;;;;;;;;;;;;;;;8.30;49.48;98013.88;4893112;29;19963;-77
2021/04/28 01:19:51;;;;;;;;;;;;;;;7.95;49.30;98014.34;4878779;29;19931;-77
2021/04/28 01:22:17;;;;;;;;;;;;;;;8.36;48.73;98014.50;4884469;29;19919;-77
2021/04/28 01:24:42;;;;;;;;;;;;;;;8.00;49.27;98013.34;4885058;29;19923;-77
2021/04/28 01:27:10;;;;;;;;;;;;;;;8.02;48.79;98011.56;4885399;29;20459;-77
2021/04/28 01:29:35;;;;;;;;;;;;;;;8.01;49.62;98008.16;4885130;29;19939;-77
2021/04/28 01:32:01;;;;;;;;;;;;;;;8.00;49.18;98006.47;4884358;29;20344;-77
2021/04/28 01:34:26;;;;;;;;;;;;;;;8.12;49.33;98005.19;4891776;29;19919;-77
2021/04/28 01:36:52;;;;;;;;;;;;;;;7.65;50.16;98005.22;4883986;29;19970;-77
2021/04/28 01:39:17;;;;;;;;;;;;;;;7.79;50.95;98004.72;4885086;29;19926;-77
2021/04/28 01:41:43;;;;;;;;;;;;;;;7.57;50.30;98008.03;4893947;29;20316;-77
2021/04/28 01:44:11;;;;;;;;;;;;;;;7.68;49.66;98005.09;4892604;29;20559;-77
2021/04/28 01:46:36;;;;;;;;;;;;;;;8.04;49.38;97997.78;4871929;29;20281;-77
2021/04/28 01:49:02;;;;;;;;;;;;;;;7.84;50.15;98006.19;4886189;29;19919;-77
2021/04/28 01:51:28;;;;;;;;;;;;;;;7.87;49.85;97990.72;4876032;29;19955;-77
2021/04/28 01:53:53;;;;;;;;;;;;;;;7.64;49.92;97998.41;4890788;29;20183;-78
2021/04/28 01:56:19;;;;;;;;;;;;;;;7.73;50.42;97992.94;4906424;29;19986;-77
2021/04/28 01:58:44;;;;;;;;;;;;;;;7.58;51.30;97988.41;4875927;29;19920;-77
2021/04/28 02:01:10;;;;;;;;;;;;;;;7.50;51.99;97986.97;4881676;29;20003;-77
2021/04/28 02:03:35;;;;;;;;;;;;;;;7.31;51.97;97985.91;4881390;29;20010;-76
2021/04/28 02:06:01;;;;;;;;;;;;;;;6.98;54.96;97991.31;4878663;29;20420;-77
2021/04/28 02:08:27;;;;;;;;;;;;;;;6.99;53.91;97982.75;4894265;29;20028;-77
2021/04/28 02:10:52;;;;;;;;;;;;;;;6.50;55.40;97981.81;4883363;29;20301;-77
2021/04/28 02:13:18;;;;;;;;;;;;;;;5.69;59.87;97992.72;4893581;29;19926;-77
2021/04/28 02:15:44;;;;;;;;;;;;;;;6.14;59.09;97992.28;4875782;29;21075;-76
2021/04/28 02:18:09;;;;;;;;;;;;;;;6.17;59.73;97981.97;4886453;29;19923;-77
2021/04/28 02:20:35;;;;;;;;;;;;;;;6.30;58.26;97984.16;4882995;29;20417;-77
2021/04/28 02:23:00;;;;;;;;;;;;;;;5.97;58.89;97984.28;4886236;29;19923;-77
2021/04/28 02:25:26;;;;;;;;;;;;;;;6.39;56.82;97983.88;4891975;29;20389;-76
2021/04/28 02:27:54;;;;;;;;;;;;;;;5.97;57.68;97981.72;4884279;29;19915;-77
2021/04/28 02:30:21;;;;;;;;;;;;;;;6.05;56.40;97979.78;4894504;29;19922;-77
2021/04/28 02:32:46;;;;;;;;;;;;;;;6.28;55.04;97977.34;4893719;29;19957;-77
2021/04/28 02:35:13;;;;;;;;;;;;;;;6.80;53.61;97974.84;4892890;29;20322;-77
2021/04/28 02:37:38;;;;;;;;;;;;;;;6.65;53.87;97965.94;4884373;29;19931;-76
2021/04/28 02:40:07;;;;;;;;;;;;;;;6.06;56.09;97968.69;4876004;29;20282;-77
2021/04/28 02:42:33;;;;;;;;;;;;;;;6.05;56.11;97970.41;4910509;29;19954;-77
2021/04/28 02:44:58;;;;;;;;;;;;;;;6.33;55.23;97969.53;4883598;29;19961;-77
2021/04/28 02:47:24;;;;;;;;;;;;;;;5.89;56.49;97968.34;4893263;29;19955;-77
2021/04/28 02:49:49;;;;;;;;;;;;;;;6.28;55.35;97962.03;4883892;29;19927;-77
2021/04/28 02:52:15;;;;;;;;;;;;;;;6.37;54.52;97960.91;4892152;29;19923;-78
2021/04/28 02:54:40;;;;;;;;;;;;;;;6.39;54.63;97965.97;4871085;29;19925;-77
2021/04/28 02:57:06;;;;;;;;;;;;;;;6.60;54.13;97960.16;4892310;29;19941;-77
2021/04/28 02:59:31;;;;;;;;;;;;;;;6.96;52.94;97962.38;4901060;29;20001;-77
2021/04/28 03:01:57;;;;;;;;;;;;;;;6.68;53.88;97965.00;4882558;29;19923;-77
2021/04/28 03:04:22;;;;;;;;;;;;;;;6.65;53.85;97971.06;4876136;29;19946;-77
2021/04/28 03:06:47;;;;;;;;;;;;;;;6.68;54.51;97965.00;4868339;29;20332;-77
2021/04/28 03:09:13;;;;;;;;;;;;;;;6.79;51.93;97962.94;4891743;29;20045;-77
2021/04/28 03:11:39;;;;;;;;;;;;;;;6.58;53.19;97964.47;4880855;29;19915;-77
2021/04/28 03:14:05;;;;;;;;;;;;;;;6.04;54.97;97957.66;4892792;29;19922;-77
2021/04/28 03:16:31;;;;;;;;;;;;;;;6.40;53.38;97963.34;4892244;29;19923;-77
2021/04/28 03:18:59;;;;;;;;;;;;;;;6.42;53.81;97963.31;4891701;29;19926;-77
2021/04/28 03:21:24;;;;;;;;;;;;;;;6.83;52.88;97963.69;4881142;29;19963;-77
2021/04/28 03:23:50;;;;;;;;;;;;;;;6.79;53.29;97968.06;4880966;29;19930;-77
2021/04/28 03:26:15;;;;;;;;;;;;;;;6.67;53.80;97961.63;4891397;29;19923;-77
2021/04/28 03:28:41;;;;;;;;;;;;;;;6.23;54.99;97960.50;4891023;29;20010;-77
2021/04/28 03:31:06;;;;;;;;;;;;;;;6.45;54.72;97952.97;4890318;29;20597;-78
2021/04/28 03:33:32;;;;;;;;;;;;;;;6.23;55.32;97956.22;4881331;29;19923;-77
2021/04/28 03:35:57;;;;;;;;;;;;;;;6.05;56.36;97957.63;4877177;29;20531;-77
2021/04/28 03:38:22;;;;;;;;;;;;;;;6.38;55.63;97956.63;4889667;29;19919;-77
2021/04/28 03:40:48;;;;;;;;;;;;;;;6.59;54.85;97950.81;4886839;29;19923;-77
2021/04/28 03:43:13;;;;;;;;;;;;;;;6.32;54.98;97950.00;4888376;29;19958;-76
2021/04/28 03:45:39;;;;;;;;;;;;;;;6.27;55.82;97952.69;4889607;29;20423;-77
2021/04/28 03:48:04;;;;;;;;;;;;;;;5.99;56.81;97956.97;4903910;29;20432;-77
2021/04/28 03:50:30;;;;;;;;;;;;;;;6.02;56.18;97954.31;4887923;29;19919;-76
2021/04/28 03:52:55;;;;;;;;;;;;;;;6.22;54.11;97949.41;4871665;29;20437;-77
2021/04/28 03:55:21;;;;;;;;;;;;;;;6.43;53.78;97954.75;4900594;29;19923;-77
2021/04/28 03:57:46;;;;;;;;;;;;;;;6.34;54.05;97955.91;4870510;29;19919;-77
2021/04/28 04:00:12;;;;;;;;;;;;;;;6.06;54.49;97955.91;4904654;29;20013;-77
2021/04/28 04:02:37;;;;;;;;;;;;;;;6.03;55.30;97956.81;4887248;29;19915;-77
2021/04/28 04:05:03;;;;;;;;;;;;;;;6.20;54.31;97964.00;4876171;29;19919;-77
2021/04/28 04:07:28;;;;;;;;;;;;;;;6.22;54.79;97957.09;4869128;29;19931;-77
2021/04/28 04:09:53;;;;;;;;;;;;;;;6.27;53.83;97959.50;4885799;29;19927;-77
2021/04/28 04:12:19;;;;;;;;;;;;;;;5.66;56.24;97959.63;4881957;29;20014;-77
2021/04/28 04:14:44;;;;;;;;;;;;;;;6.15;56.34;97962.44;4885258;29;19930;-77
2021/04/28 04:17:10;;;;;;;;;;;;;;;5.90;56.25;97957.22;4902855;29;19923;-76
2021/04/28 04:19:35;;;;;;;;;;;;;;;5.86;55.69;97957.31;4885613;29;20041;-77
2021/04/28 04:22:00;;;;;;;;;;;;;;;6.07;56.84;97963.53;4872683;29;19932;-77
2021/04/28 04:24:26;;;;;;;;;;;;;;;5.73;56.06;97958.56;4876002;29;20031;-77
2021/04/28 04:26:51;;;;;;;;;;;;;;;6.08;56.76;97959.25;4866268;29;20381;-76
2021/04/28 04:29:17;;;;;;;;;;;;;;;5.59;58.01;97970.91;4861816;29;19915;-77
2021/04/28 04:31:42;;;;;;;;;;;;;;;5.85;58.02;97963.28;4873199;29;19938;-77
2021/04/28 04:34:08;;;;;;;;;;;;;;;5.65;58.22;97970.69;4886714;29;19963;-77
2021/04/28 04:36:33;;;;;;;;;;;;;;;5.67;59.49;97966.38;4885865;29;19919;-77
2021/04/28 04:38:58;;;;;;;;;;;;;;;5.52;58.34;97969.38;4871053;29;19919;-77
2021/04/28 04:41:24;;;;;;;;;;;;;;;5.79;57.75;97960.94;4873951;29;19923;-76
2021/04/28 04:43:49;;;;;;;;;;;;;;;5.84;57.72;97971.84;4886828;29;19923;-77
2021/04/28 04:46:15;;;;;;;;;;;;;;;5.68;57.44;97968.09;4875839;29;20295;-77
2021/04/28 04:48:40;;;;;;;;;;;;;;;5.82;55.97;97965.94;4870733;29;19919;-77
2021/04/28 04:51:05;;;;;;;;;;;;;;;6.03;54.70;97966.22;4886507;29;20447;-77
2021/04/28 04:53:31;;;;;;;;;;;;;;;6.32;56.24;97964.47;4870376;29;20385;-77
2021/04/28 04:55:56;;;;;;;;;;;;;;;5.95;58.00;97958.75;4889747;29;20882;-77
2021/04/28 04:58:21;;;;;;;;;;;;;;;5.41;61.87;97967.13;4907632;29;20284;-76
2021/04/28 05:00:47;;;;;;;;;;;;;;;5.85;61.45;97963.28;4905893;29;19966;-76
2021/04/28 05:03:12;;;;;;;;;;;;;;;5.55;61.60;97959.91;4868491;29;20018;-76
2021/04/28 05:05:37;;;;;;;;;;;;;;;6.36;57.19;97963.50;4903560;29;20588;-76
2021/04/28 05:08:03;;;;;;;;;;;;;;;6.05;59.92;97964.47;4889120;29;20437;-76
2021/04/28 05:10:28;;;;;;;;;;;;;;;5.76;61.28;97963.56;4874728;29;19981;-77
2021/04/28 05:12:54;;;;;;;;;;;;;;;5.81;60.13;97971.09;4875747;29;20549;-76
2021/04/28 05:15:19;;;;;;;;;;;;;;;6.41;60.11;97967.59;4875176;29;19937;-77
2021/04/28 05:17:44;;;;;;;;;;;;;;;6.56;57.26;97966.25;4873034;29;19922;-76
2021/04/28 05:20:10;;;;;;;;;;;;;;;6.79;55.21;97964.66;4888603;29;19954;-76
2021/04/28 05:22:36;;;;;;;;;;;;;;;7.39;54.69;97963.44;4873736;29;20021;-76
2021/04/28 05:25:01;;;;;;;;;;;;;;;7.42;53.26;97968.44;4872630;29;21067;-76
2021/04/28 05:27:27;;;;;;;;;;;;;;;7.66;53.68;97961.63;4872966;29;19980;-76
2021/04/28 05:29:52;;;;;;;;;;;;;;;7.64;51.99;97967.66;4887637;29;20305;-76
2021/04/28 05:32:21;;;;;;;;;;;;;;;7.94;53.50;97970.81;4890148;29;19919;-76
2021/04/28 05:34:47;;;;;;;;;;;;;;;7.94;53.54;97961.41;4858953;29;19923;-75
2021/04/28 05:37:13;;;;;;;;;;;;;;;7.85;52.17;97963.50;4891013;29;20502;-77
2021/04/28 05:39:39;;;;;;;;;;;;;;;7.93;53.58;97966.56;4887891;29;20638;-76
2021/04/28 05:42:05;;;;;;;;;;;;;;;8.42;52.58;97962.16;4889513;29;19926;-75
2021/04/28 05:44:30;;;;;;;;;;;;;;;8.70;50.78;97956.72;4886341;29;19915;-75
2021/04/28 05:46:56;;;;;;;;;;;;;;;8.50;48.85;97956.69;4873355;29;19922;-77
2021/04/28 05:49:21;;;;;;;;;;;;;;;8.89;50.64;97956.78;4868078;29;19919;-77
2021/04/28 05:51:46;;;;;;;;;;;;;;;8.95;50.28;97951.41;4904147;29;19942;-76
2021/04/28 05:54:12;;;;;;;;;;;;;;;9.11;50.62;97946.44;4886645;29;20297;-75
2021/04/28 05:56:38;;;;;;;;;;;;;;;8.77;50.39;97947.88;4888235;29;19952;-75
2021/04/28 05:59:03;;;;;;;;;;;;;;;8.16;48.83;97952.88;4887808;29;19922;-76
2021/04/28 06:01:29;;;;;;;;;;;;;;;9.04;50.86;97944.22;4887968;29;20390;-76
2021/04/28 06:03:54;;;;;;;;;;;;;;;9.45;49.59;97947.53;4885285;29;19923;-76
2021/04/28 06:06:19;;;;;;;;;;;;;;;8.89;47.15;97945.69;4887880;29;20021;-76
2021/04/28 06:08:45;;;;;;;;;;;;;;;9.54;48.18;97941.16;4887623;29;19925;-75
2021/04/28 06:11:11;;;;;;;;;;;;;;;9.45;46.57;97947.53;4873117;29;20018;-76
2021/04/28 06:13:36;;;;;;;;;;;;;;;9.54;46.44;97951.44;4904196;29;20412;-75
2021/04/28 06:16:01;;;;;;;;;;;;;;;9.89;45.93;97946.44;4905102;29;19919;-76
2021/04/28 06:18:27;;;;;;;;;;;;;;;9.73;46.79;97943.72;4871249;29;20045;-76
2021/04/28 06:20:52;;;;;;;;;;;;;;;10.35;45.53;97941.72;4887387;29;20297;-75
2021/04/28 06:23:18;;;;;;;;;;;;;;;10.92;43.93;97946.66;4887307;29;19919;-75
2021/04/28 06:25:45;;;;;;;;;;;;;;;9.84;50.89;97947.47;4888514;29;20217;-76
2021/04/28 06:28:10;;;;;;;;;;;;;;;9.75;51.51;97952.22;4873948;29;19923;-76
2021/04/28 06:30:35;;;;;;;;;;;;;;;9.66;48.88;97955.19;4873240;29;20010;-76
2021/04/28 06:33:01;;;;;;;;;;;;;;;9.75;50.00;97952.22;4858429;29;19970;-76
2021/04/28 06:35:26;;;;;;;;;;;;;;;10.04;49.39;97946.56;4869383;29;20167;-76
2021/04/28 06:37:52;;;;;;;;;;;;;;;10.59;46.49;97950.00;4870048;29;19919;-76
2021/04/28 06:40:17;;;;;;;;;;;;;;;10.79;46.32;97952.44;4874926;29;19927;-76
2021/04/28 06:42:43;;;;;;;;;;;;;;;11.11;45.38;97947.41;4899900;29;19923;-76
2021/04/28 06:45:10;;;;;;;;;;;;;;;11.42;43.30;97956.94;4883261;29;19919;-76
2021/04/28 06:47:35;;;;;;;;;;;;;;;11.85;42.28;97944.34;4884599;29;20022;-76
2021/04/28 06:50:01;;;;;;;;;;;;;;;11.78;43.29;97947.38;4872725;29;20049;-75
2021/04/28 06:52:26;;;;;;;;;;;;;;;12.45;42.61;97943.69;4886511;29;19922;-76
2021/04/28 06:54:53;;;;;;;;;;;;;;;12.62;40.97;97941.88;4886690;29;19919;-76
2021/04/28 06:57:20;;;;;;;;;;;;;;;12.72;42.60;97953.34;4902532;29;19930;-77
2021/04/28 06:59:45;;;;;;;;;;;;;;;12.80;43.21;97940.81;4868596;29;19919;-77
2021/04/28 07:02:11;;;;;;;;;;;;;;;13.18;42.75;97945.47;4875372;29;19998;-77
2021/04/28 07:04:36;;;;;;;;;;;;;;;12.69;42.09;97946.59;4873785;29;19919;-77
2021/04/28 07:07:01;;;;;;;;;;;;;;;13.01;42.49;97940.50;4875959;29;19927;-77
2021/04/28 07:09:27;;;;;;;;;;;;;;;13.43;43.68;97941.47;4890672;29;19923;-77
2021/04/28 07:11:52;;;;;;;;;;;;;;;13.65;41.35;97936.63;4890289;29;19921;-77
2021/04/28 07:14:18;;;;;;;;;;;;;;;14.03;39.77;97941.19;4878791;29;19919;-77
2021/04/28 07:16:44;;;;;;;;;;;;;;;14.42;40.37;97931.81;4908019;29;20838;-76
2021/04/28 07:19:10;;;;;;;;;;;;;;;14.05;43.81;97934.16;4889902;29;19919;-76
2021/04/28 07:21:37;;;;;;;;;;;;;;;13.44;43.20;97938.78;4863300;29;19935;-76
2021/04/28 07:24:04;;;;;;;;;;;;;;;13.19;42.58;97945.41;4862489;29;19923;-76
2021/04/28 07:26:29;;;;;;;;;;;;;;;13.41;43.59;97940.72;4861028;29;19919;-76
2021/04/28 07:28:56;;;;;;;;;;;;;;;14.02;42.26;97940.34;4859830;29;19926;-76
2021/04/28 07:31:22;;;;;;;;;;;;;;;14.37;42.59;97926.09;4873780;29;19923;-76
2021/04/28 07:33:47;;;;;;;;;;;;;;;13.96;42.07;97930.41;4872841;29;19986;-76
2021/04/28 07:36:13;;;;;;;;;;;;;;;14.02;41.02;97929.16;4874095;29;19919;-76
2021/04/28 07:38:38;;;;;;;;;;;;;;;14.36;44.15;97925.25;4873994;29;19927;-75
2021/04/28 07:41:04;;;;;;;;;;;;;;;13.34;47.72;97930.75;4858761;29;20385;-77
2021/04/28 07:43:30;;;;;;;;;;;;;;;13.66;46.22;97925.38;4864791;29;20460;-76
2021/04/28 07:45:55;;;;;;;;;;;;;;;14.77;45.46;97932.09;4875936;29;20073;-76
2021/04/28 07:48:21;;;;;;;;;;;;;;;14.79;46.51;97929.41;4867213;29;19923;-76
2021/04/28 07:50:47;;;;;;;;;;;;;;;14.69;46.34;97931.78;4867947;29;20038;-76
2021/04/28 07:53:13;;;;;;;;;;;;;;;14.95;45.46;97935.22;4877553;29;20356;-76
2021/04/28 07:55:38;;;;;;;;;;;;;;;15.32;44.03;97932.75;4863414;29;21150;-77
2021/04/28 07:58:04;;;;;;;;;;;;;;;14.46;43.27;97929.81;4875099;29;20734;-76
2021/04/28 08:00:30;;;;;;;;;;;;;;;15.35;45.17;97932.56;4860545;29;20537;-77
2021/04/28 08:02:55;;;;;;;;;;;;;;;15.09;44.12;97930.88;4861460;29;19919;-76
2021/04/28 08:05:21;;;;;;;;;;;;;;;14.49;44.93;97929.66;4873351;29;19919;-76
2021/04/28 08:07:47;;;;;;;;;;;;;;;14.96;49.14;97926.53;4890780;29;19954;-76
2021/04/28 08:10:12;;;;;;;;;;;;;;;14.45;46.23;97931.59;4874326;29;19962;-76
2021/04/28 08:12:38;;;;;;;;;;;;;;;14.43;45.86;97934.28;4875156;29;20009;-76
2021/04/28 08:15:03;;;;;;;;;;;;;;;15.62;46.21;97935.00;4859612;29;19978;-76
2021/04/28 08:17:29;;;;;;;;;;;;;;;15.60;44.94;97938.63;4847533;29;19959;-76
2021/04/28 08:19:55;;;;;;;;;;;;;;;14.75;44.07;97944.31;4861679;29;20002;-76
2021/04/28 08:22:21;;;;;;;;;;;;;;;14.72;46.84;97936.75;4871143;29;19927;-76
2021/04/28 08:24:46;;;;;;;;;;;;;;;15.65;42.54;97939.97;4871487;29;20028;-76
2021/04/28 08:27:12;;;;;;;;;;;;;;;16.18;46.18;97937.13;4893215;29;20009;-76
2021/04/28 08:29:37;;;;;;;;;;;;;;;16.64;43.21;97932.94;4858825;29;19983;-76
2021/04/28 08:32:03;;;;;;;;;;;;;;;16.00;41.61;97933.25;4860519;29;20332;-77
2021/04/28 08:34:28;;;;;;;;;;;;;;;15.87;45.54;97934.13;4873737;29;19911;-75
2021/04/28 08:36:55;;;;;;;;;;;;;;;16.27;38.20;97939.06;4857752;29;19931;-75
2021/04/28 08:39:20;;;;;;;;;;;;;;;15.53;40.32;97930.44;4889049;29;20641;-76
2021/04/28 08:41:50;;;;;;;;;;;;;;;15.99;45.14;97927.25;4860773;29;19923;-76
2021/04/28 08:44:15;;;;;;;;;;;;;;;16.77;40.54;97933.72;4873401;29;19991;-76
2021/04/28 08:46:41;;;;;;;;;;;;;;;17.49;38.77;97923.06;4850831;29;20329;-76
2021/04/28 08:49:06;;;;;;;;;;;;;;;16.71;41.00;97924.56;4860031;29;20367;-76
2021/04/28 08:51:32;;;;;;;;;;;;;;;16.39;42.89;97924.34;4863424;29;19967;-75
2021/04/28 08:53:57;;;;;;;;;;;;;;;17.02;39.31;97922.31;4873807;29;20570;-75
2021/04/28 08:56:24;;;;;;;;;;;;;;;16.95;35.12;97921.13;4874328;29;19926;-75
2021/04/28 08:58:54;;;;;;;;;;;;;;;17.17;35.81;97919.50;4849825;29;20413;-75
2021/04/28 09:01:29;;;;;;;;;;;;;;;17.18;34.97;97919.38;4874589;29;19930;-76
2021/04/28 09:03:56;;;;;;;;;;;;;;;16.38;37.06;97911.50;4873737;29;20046;-75
2021/04/28 09:06:30;;;;;;;;;;;;;;;16.45;37.09;97913.53;4891239;29;20612;-75
2021/04/28 09:08:55;;;;;;;;;;;;;;;16.48;35.50;97915.06;4861224;29;20373;-74
2021/04/28 09:11:40;;;;;;;;;;;;;;;16.68;39.95;97913.59;4873068;29;19919;-75
2021/04/28 09:14:08;;;;;;;;;;;;;;;18.69;36.51;97905.69;4891360;29;19923;-76
2021/04/28 09:16:33;;;;;;;;;;;;;;;18.47;34.93;97905.78;4863327;29;19919;-75
2021/04/28 09:19:00;;;;;;;;;;;;;;;16.90;43.69;97902.44;4875138;29;19991;-75
2021/04/28 09:21:44;;;;;;;;;;;;;;;17.60;36.26;97895.34;4861075;29;20593;-76
2021/04/28 09:24:16;;;;;;;;;;;;;;;18.67;34.35;97897.16;4860977;29;19927;-76
2021/04/28 09:26:42;;;;;;;;;;;;;;;18.50;33.44;97900.34;4874512;29;20851;-75
2021/04/28 09:29:07;;;;;;;;;;;;;;;18.16;33.60;97892.66;4891668;29;19925;-75
2021/04/28 09:31:34;;;;;;;;;;;;;;;18.12;36.42;97881.63;4875487;29;19918;-76
2021/04/28 09:34:01;;;;;;;;;;;;;;;20.17;32.77;97885.25;4873908;29;20010;-75
2021/04/28 09:36:32;;;;;;;;;;;;;;;18.06;35.09;97881.31;4876093;29;19950;-76
2021/04/28 09:39:08;;;;;;;;;;;;;;;18.53;34.76;97880.03;4894297;29;20018;-77
2021/04/28 09:41:47;;;;;;;;;;;;;;;18.70;31.97;97870.84;4867226;29;20397;-76
2021/04/28 09:44:18;;;;;;;;;;;;;;;18.87;31.08;97881.66;4878500;29;20002;-76
2021/04/28 09:47:14;;;;;;;;;;;;;;;18.94;30.81;97877.56;4866319;29;19962;-75
2021/04/28 09:49:44;;;;;;;;;;;;;;;19.42;33.78;97866.50;4881635;29;19922;-77
2021/04/28 09:52:10;;;;;;;;;;;;;;;18.95;31.79;97874.00;4894446;29;19999;-75
2021/04/28 09:54:36;;;;;;;;;;;;;;;18.99;31.46;97864.97;4862081;29;20493;-75
2021/04/28 09:57:02;;;;;;;;;;;;;;;20.48;29.93;97865.84;4876610;29;19919;-76
2021/04/28 09:59:41;;;;;;;;;;;;;;;20.39;33.12;97866.66;4878032;29;20627;-77
2021/04/28 10:02:07;;;;;;;;;;;;;;;17.55;30.17;97872.28;4878356;29;20045;-76
2021/04/28 10:04:32;;;;;;;;;;;;;;;19.07;34.78;97862.53;4873884;29;19929;-76
2021/04/28 10:06:58;;;;;;;;;;;;;;;18.56;30.62;97863.31;4874334;29;19927;-77
2021/04/28 10:09:36;;;;;;;;;;;;;;;19.01;30.93;97863.06;4872234;29;19927;-75
2021/04/28 10:12:06;;;;;;;;;;;;;;;19.34;32.55;97848.06;4888314;29;19931;-76
2021/04/28 10:14:32;;;;;;;;;;;;;;;19.69;29.70;97852.06;4871243;29;20403;-76
2021/04/28 10:16:59;;;;;;;;;;;;;;;20.69;38.26;97851.78;4874386;29;19974;-76
2021/04/28 10:19:25;;;;;;;;;;;;;;;19.59;30.53;97852.81;4876130;29;19923;-74
2021/04/28 10:21:53;;;;;;;;;;;;;;;20.60;32.43;97852.63;4864557;29;19930;-75
2021/04/28 10:24:19;;;;;;;;;;;;;;;20.40;30.92;97852.63;4875860;29;19954;-75
2021/04/28 10:26:46;;;;;;;;;;;;;;;18.98;30.32;97847.66;4876203;29;20352;-75
2021/04/28 10:29:12;;;;;;;;;;;;;;;19.18;29.50;97844.19;4876003;29;19938;-75
2021/04/28 10:31:37;;;;;;;;;;;;;;;20.14;31.09;97838.44;4876559;29;20665;-76
2021/04/28 10:34:03;;;;;;;;;;;;;;;21.17;34.18;97835.09;4877082;29;21379;-76
2021/04/28 10:36:28;;;;;;;;;;;;;;;21.77;30.96;97831.22;4876573;29;20010;-77
2021/04/28 10:38:58;;;;;;;;;;;;;;;20.78;28.69;97829.19;4894550;29;19970;-76
2021/04/28 10:41:36;;;;;;;;;;;;;;;19.32;30.51;97831.72;4895575;29;19930;-77
2021/04/28 10:44:01;;;;;;;;;;;;;;;20.19;27.88;97828.44;4895216;29;19919;-77
2021/04/28 10:46:26;;;;;;;;;;;;;;;19.81;31.45;97824.84;4895674;29;20248;-76
2021/04/28 10:48:52;;;;;;;;;;;;;;;20.57;28.62;97826.75;4892410;29;20541;-77
2021/04/28 10:51:33;;;;;;;;;;;;;;;20.41;28.47;97822.91;4871764;29;19919;-75
2021/04/28 10:54:17;;;;;;;;;;;;;;;19.07;29.09;97826.00;4890927;29;19930;-77
2021/04/28 10:57:01;;;;;;;;;;;;;;;19.85;27.60;97821.00;4893555;29;20920;-76
2021/04/28 10:59:41;;;;;;;;;;;;;;;21.11;26.97;97809.50;4894439;29;21532;-77
2021/04/28 11:02:07;;;;;;;;;;;;;;;20.46;26.35;97812.03;4864635;29;20305;-77
2021/04/28 11:04:33;;;;;;;;;;;;;;;20.82;29.47;97810.44;4866068;29;19919;-77
2021/04/28 11:06:58;;;;;;;;;;;;;;;20.85;26.89;97810.16;4864981;29;20415;-77
2021/04/28 11:09:25;;;;;;;;;;;;;;;21.00;29.10;97807.06;4871204;29;20023;-77
2021/04/28 11:11:52;;;;;;;;;;;;;;;20.41;28.89;97807.22;4873680;29;20014;-76
2021/04/28 11:14:18;;;;;;;;;;;;;;;20.07;33.03;97814.69;4860268;29;21116;-75
2021/04/28 11:16:57;;;;;;;;;;;;;;;20.19;29.65;97813.56;4908587;29;19919;-75
2021/04/28 11:19:33;;;;;;;;;;;;;;;20.45;31.94;97802.50;4907942;29;19926;-77
2021/04/28 11:22:23;;;;;;;;;;;;;;;20.20;26.66;97812.59;4860878;29;20038;-76
2021/04/28 11:24:55;;;;;;;;;;;;;;;20.58;27.80;97797.03;4905664;29;20064;-77
2021/04/28 11:27:40;;;;;;;;;;;;;;;20.88;31.55;97794.16;4870724;29;20539;-77
2021/04/28 11:30:11;;;;;;;;;;;;;;;19.72;26.81;97794.31;4904637;29;19919;-76
2021/04/28 11:32:38;;;;;;;;;;;;;;;19.57;26.72;97794.69;4887176;29;19922;-77
2021/04/28 11:35:12;;;;;;;;;;;;;;;20.99;34.50;97792.34;4874748;29;20469;-76
2021/04/28 11:37:38;;;;;;;;;;;;;;;21.08;26.31;97783.63;4872573;29;20904;-76
2021/04/28 11:40:03;;;;;;;;;;;;;;;22.19;31.39;97784.25;4872056;29;19923;-76
2021/04/28 11:42:31;;;;;;;;;;;;;;;21.15;29.93;97774.19;4884357;29;19919;-75
2021/04/28 11:45:00;;;;;;;;;;;;;;;23.87;30.21;97765.28;4871315;29;19919;-76
2021/04/28 11:47:26;;;;;;;;;;;;;;;21.71;28.70;97770.56;4874148;29;20317;-75
2021/04/28 11:49:52;;;;;;;;;;;;;;;21.19;26.12;97775.56;4886439;29;19923;-77
2021/04/28 11:52:19;;;;;;;;;;;;;;;20.40;26.18;97779.41;4886132;29;19966;-77
2021/04/28 11:54:45;;;;;;;;;;;;;;;21.81;26.53;97775.72;4872484;29;19915;-77
2021/04/28 11:57:10;;;;;;;;;;;;;;;21.05;29.53;97770.78;4879317;29;20359;-77
2021/04/28 11:59:37;;;;;;;;;;;;;;;22.54;26.15;97762.38;4861576;29;19923;-76
2021/04/28 12:02:03;;;;;;;;;;;;;;;22.41;29.79;97756.72;4884989;29;20494;-76
2021/04/28 12:04:49;;;;;;;;;;;;;;;22.32;28.20;97752.38;4859482;29;19919;-76
2021/04/28 12:07:14;;;;;;;;;;;;;;;22.22;29.03;97757.75;4880918;29;19926;-75
2021/04/28 12:09:41;;;;;;;;;;;;;;;23.02;34.86;97759.34;4888775;29;19919;-76
2021/04/28 12:12:36;;;;;;;;;;;;;;;21.69;25.95;97761.19;4890319;29;19919;-76
2021/04/28 12:15:06;;;;;;;;;;;;;;;23.49;28.89;97751.78;4908466;29;21082;-77
2021/04/28 12:17:32;;;;;;;;;;;;;;;23.96;24.36;97745.09;4909185;29;20371;-76
2021/04/28 12:19:58;;;;;;;;;;;;;;;24.61;25.06;97742.41;4870755;29;19923;-77
2021/04/28 12:22:24;;;;;;;;;;;;;;;23.43;22.97;97739.28;4909094;29;19915;-75
2021/04/28 12:24:51;;;;;;;;;;;;;;;23.00;28.27;97733.25;4879410;29;19921;-77
2021/04/28 12:27:26;;;;;;;;;;;;;;;23.52;25.19;97727.78;4892062;29;19922;-77
2021/04/28 12:29:52;;;;;;;;;;;;;;;23.35;27.82;97732.19;4878561;29;20452;-77
2021/04/28 12:32:18;;;;;;;;;;;;;;;23.54;23.47;97732.88;4891186;29;19915;-76
2021/04/28 12:34:44;;;;;;;;;;;;;;;21.31;25.40;97732.47;4876764;29;19957;-77
2021/04/28 12:37:12;;;;;;;;;;;;;;;23.51;35.33;97734.00;4876981;29;19954;-76
2021/04/28 12:39:37;;;;;;;;;;;;;;;21.30;23.87;97736.09;4891054;29;19919;-77
2021/04/28 12:42:03;;;;;;;;;;;;;;;23.27;27.18;97728.72;4891046;29;19931;-76
2021/04/28 12:44:28;;;;;;;;;;;;;;;21.62;27.04;97726.09;4875571;29;19919;-77
2021/04/28 12:46:54;;;;;;;;;;;;;;;21.88;25.59;97718.28;4889858;29;19920;-77
2021/04/28 12:49:22;;;;;;;;;;;;;;;22.27;29.19;97725.81;4876236;29;20930;-77
2021/04/28 12:51:50;;;;;;;;;;;;;;;22.73;26.42;97719.31;4874964;29;20579;-77